This is the latest recevied weather packets stored in our database for station/object W4KAB. If no packets are shown the sender has not sent any weather packets the latest 10 day(s).
| Time | Temp. | Humidity | Pressure | Rain* | Wind** | Luminosity | Snow |
|---|---|---|---|---|---|---|---|
| 1777735519 | 11.67° C | 53% | 1016 hPa | 0 mm | - | 88 W/m² | - |
| 1777735217 | 11.11° C | 54% | 1016.2 hPa | 0 mm | - | 72 W/m² | - |
| 1777734913 | 11.11° C | 56% | 1016.1 hPa | 0 mm | - | 55 W/m² | - |
| 1777734611 | 11.11° C | 54% | 1015.9 hPa | 0 mm | - | 43 W/m² | - |
| 1777734308 | 11.11° C | 57% | 1015.9 hPa | 0 mm | - | 61 W/m² | - |
| 1777734004 | 11.11° C | 59% | 1016.1 hPa | 0 mm | - | 45 W/m² | - |
| 1777733700 | 11.11° C | 54% | 1016.3 hPa | 0 mm | - | 43 W/m² | - |
| 1777733397 | 11.11° C | 56% | 1016.1 hPa | 0 mm | - | 39 W/m² | - |
| 1777733093 | 11.11° C | 57% | 1015.9 hPa | 0 mm | - | 53 W/m² | - |
| 1777732790 | 11.11° C | 57% | 1015.6 hPa | 0 mm | - | 53 W/m² | - |
| 1777732487 | 10.56° C | 57% | 1015.8 hPa | 0 mm | - | 54 W/m² | - |
| 1777732184 | 10.56° C | 60% | 1015.6 hPa | 0 mm | - | 49 W/m² | - |
| 1777731881 | 11.11° C | 59% | 1015.9 hPa | 0 mm | - | 39 W/m² | - |
| 1777731578 | 11.11° C | 54% | 1015.9 hPa | 0 mm | - | 26 W/m² | - |
| 1777731276 | 11.67° C | 57% | 1015.7 hPa | 0 mm | - | 38 W/m² | - |
| 1777730973 | 11.67° C | 57% | 1015.4 hPa | 0 mm | - | 77 W/m² | - |
| 1777730672 | 11.67° C | 58% | 1015.2 hPa | 0 mm | - | 121 W/m² | - |
| 1777730367 | 11.67° C | 64% | 1015.6 hPa | 0 mm | - | 74 W/m² | - |
| 1777730064 | 11.67° C | 63% | 1015.8 hPa | 0 mm | - | 63 W/m² | - |
| 1777729760 | 11.67° C | 74% | 1015.5 hPa | 0 mm | - | 67 W/m² | - |
| 1777729457 | 11.67° C | 69% | 1015.7 hPa | 0 mm | - | 56 W/m² | - |
| 1777729154 | 11.67° C | 73% | 1015.6 hPa | 0 mm | - | 52 W/m² | - |
| 1777728850 | 11.67° C | 77% | 1015.6 hPa | 0 mm | - | 61 W/m² | - |
| 1777728547 | 11.67° C | 73% | 1015.9 hPa | 0 mm | - | 46 W/m² | - |
| 1777728245 | 11.67° C | 74% | 1015.6 hPa | 0 mm | - | 54 W/m² | - |
* Rain latest hour (hover to see other rain measurements)
** Current wind speed in m/s (hover to see current wind gust speed)